createdAt,value
2022-12-31T00:00:28.042Z,507.00
2022-12-31T00:00:58.015Z,508.00
2022-12-31T00:01:28.108Z,508.00
2022-12-31T00:01:58.338Z,506.00
2022-12-31T00:02:28.425Z,504.00
2022-12-31T00:02:58.494Z,506.00
2022-12-31T00:03:28.515Z,504.00
2022-12-31T00:03:58.306Z,504.00
2022-12-31T00:04:28.400Z,501.00
2022-12-31T00:04:58.483Z,499.00
2022-12-31T00:05:28.567Z,499.00
2022-12-31T00:05:58.660Z,502.00
2022-12-31T00:06:28.757Z,502.00
2022-12-31T00:06:58.821Z,505.00
2022-12-31T00:07:28.898Z,501.00
2022-12-31T00:07:58.980Z,501.00
2022-12-31T00:08:29.078Z,505.00
2022-12-31T00:08:59.155Z,504.00
2022-12-31T00:09:29.241Z,503.00
2022-12-31T00:09:59.319Z,504.00
2022-12-31T00:10:29.401Z,504.00
2022-12-31T00:10:59.483Z,504.00
2022-12-31T00:11:29.576Z,506.00
2022-12-31T00:11:59.681Z,503.00
2022-12-31T00:12:29.733Z,504.00
2022-12-31T00:12:59.827Z,502.00
2022-12-31T00:13:29.949Z,502.00
2022-12-31T00:14:00.042Z,502.00
2022-12-31T00:14:30.133Z,503.00
2022-12-31T00:15:00.191Z,502.00
2022-12-31T00:15:30.299Z,504.00
2022-12-31T00:16:00.363Z,503.00
2022-12-31T00:16:30.473Z,502.00
2022-12-31T00:17:00.634Z,503.00
2022-12-31T00:17:30.609Z,500.00
2022-12-31T00:18:00.782Z,500.00
2022-12-31T00:18:30.722Z,498.00
2022-12-31T00:19:00.844Z,501.00
2022-12-31T00:19:30.831Z,504.00
2022-12-31T00:20:00.923Z,504.00
2022-12-31T00:20:31.002Z,504.00
2022-12-31T00:21:01.081Z,503.00
2022-12-31T00:21:31.159Z,503.00
2022-12-31T00:22:01.262Z,502.00
2022-12-31T00:22:31.347Z,504.00
2022-12-31T00:23:01.427Z,503.00
2022-12-31T00:23:31.502Z,504.00
2022-12-31T00:24:01.601Z,504.00
2022-12-31T00:24:31.679Z,504.00
2022-12-31T00:25:01.765Z,502.00
2022-12-31T00:25:31.837Z,502.00
2022-12-31T00:26:01.922Z,502.00
2022-12-31T00:26:32.009Z,501.00
2022-12-31T00:27:02.088Z,501.00
2022-12-31T00:27:32.207Z,502.00
2022-12-31T00:28:02.294Z,499.00
2022-12-31T00:28:32.367Z,497.00
2022-12-31T00:29:02.498Z,495.00
2022-12-31T00:29:32.546Z,498.00
2022-12-31T00:30:04.966Z,500.00
2022-12-31T00:30:32.755Z,502.00
2022-12-31T00:31:02.774Z,504.00
2022-12-31T00:31:32.741Z,505.00
2022-12-31T00:32:02.837Z,503.00
2022-12-31T00:32:32.901Z,504.00
2022-12-31T00:33:03.009Z,505.00
2022-12-31T00:33:33.084Z,503.00
2022-12-31T00:34:03.174Z,501.00
2022-12-31T00:34:33.274Z,502.00
2022-12-31T00:35:03.342Z,505.00
2022-12-31T00:35:33.417Z,503.00
2022-12-31T00:36:03.506Z,506.00
2022-12-31T00:36:33.590Z,513.00
2022-12-31T00:37:03.669Z,508.00
2022-12-31T00:37:33.756Z,507.00
2022-12-31T00:38:03.862Z,505.00
2022-12-31T00:38:33.832Z,507.00
2022-12-31T00:39:03.917Z,502.00
2022-12-31T00:39:33.995Z,502.00
2022-12-31T00:40:04.077Z,507.00
2022-12-31T00:40:34.165Z,505.00
2022-12-31T00:41:04.248Z,507.00
2022-12-31T00:41:34.346Z,508.00
2022-12-31T00:42:04.367Z,507.00
2022-12-31T00:42:34.409Z,502.00
2022-12-31T00:43:04.511Z,499.00
2022-12-31T00:43:34.533Z,499.00
2022-12-31T00:44:04.567Z,499.00
2022-12-31T00:44:34.609Z,497.00
2022-12-31T00:45:04.656Z,494.00
2022-12-31T00:45:34.692Z,492.00
2022-12-31T00:46:04.803Z,495.00
2022-12-31T00:47:11.558Z,517.00
2022-12-31T00:47:41.589Z,514.00
2022-12-31T00:48:11.665Z,516.00
2022-12-31T00:48:41.709Z,510.00
2022-12-31T00:49:11.752Z,510.00
2022-12-31T00:49:41.795Z,511.00
2022-12-31T00:50:11.830Z,515.00
2022-12-31T00:50:41.894Z,514.00
2022-12-31T00:51:11.923Z,515.00
2022-12-31T00:51:41.968Z,515.00
2022-12-31T00:52:12.026Z,510.00
2022-12-31T00:52:42.082Z,506.00
2022-12-31T00:53:12.147Z,511.00
2022-12-31T00:53:42.182Z,513.00
2022-12-31T00:54:12.229Z,515.00
2022-12-31T00:54:42.283Z,512.00
2022-12-31T00:55:12.317Z,512.00
2022-12-31T00:55:42.361Z,511.00
2022-12-31T00:56:12.427Z,506.00
2022-12-31T00:56:42.449Z,509.00
2022-12-31T00:57:12.532Z,511.00
2022-12-31T00:57:42.609Z,509.00
2022-12-31T00:58:12.721Z,512.00
2022-12-31T00:58:42.808Z,516.00
2022-12-31T00:59:12.889Z,510.00
2022-12-31T00:59:42.978Z,509.00
2022-12-31T01:00:13.064Z,506.00
2022-12-31T01:00:43.145Z,512.00
2022-12-31T01:01:13.396Z,510.00
2022-12-31T01:01:43.500Z,504.00
2022-12-31T01:02:13.589Z,513.00
2022-12-31T01:02:43.743Z,508.00
2022-12-31T01:03:13.563Z,514.00
2022-12-31T01:03:43.653Z,512.00
2022-12-31T01:04:13.743Z,506.00
2022-12-31T01:04:43.814Z,510.00
2022-12-31T01:05:13.900Z,512.00
2022-12-31T01:05:43.997Z,509.00
2022-12-31T01:06:14.101Z,512.00
2022-12-31T01:06:44.180Z,509.00
2022-12-31T01:07:14.270Z,509.00
2022-12-31T01:07:44.349Z,508.00
2022-12-31T01:08:14.472Z,508.00
2022-12-31T01:08:44.537Z,504.00
2022-12-31T01:09:14.627Z,507.00
2022-12-31T01:09:44.709Z,504.00
2022-12-31T01:10:14.794Z,504.00
2022-12-31T01:10:44.887Z,504.00
2022-12-31T01:11:14.977Z,507.00
2022-12-31T01:11:45.056Z,507.00
2022-12-31T01:12:15.140Z,509.00
2022-12-31T01:12:45.220Z,508.00
2022-12-31T01:13:15.342Z,507.00
2022-12-31T01:13:45.407Z,510.00
2022-12-31T01:14:15.487Z,511.00
2022-12-31T01:14:45.576Z,510.00
2022-12-31T01:15:15.679Z,509.00
2022-12-31T01:15:45.769Z,508.00
2022-12-31T01:16:15.932Z,510.00
2022-12-31T01:16:45.925Z,507.00
2022-12-31T01:17:15.977Z,509.00
2022-12-31T01:17:46.060Z,508.00
2022-12-31T01:18:16.172Z,509.00
2022-12-31T01:18:46.243Z,507.00
2022-12-31T01:19:16.323Z,506.00
2022-12-31T01:19:46.407Z,508.00
2022-12-31T01:20:16.519Z,502.00
2022-12-31T01:20:46.590Z,506.00
2022-12-31T01:21:16.686Z,502.00
2022-12-31T01:21:46.753Z,510.00
2022-12-31T01:22:16.840Z,510.00
2022-12-31T01:22:46.935Z,509.00
2022-12-31T01:23:17.011Z,537.00
2022-12-31T01:23:47.090Z,504.00
2022-12-31T01:24:17.179Z,502.00
2022-12-31T01:24:47.268Z,498.00
2022-12-31T01:25:17.357Z,501.00
2022-12-31T01:25:47.440Z,503.00
2022-12-31T01:26:17.521Z,504.00
2022-12-31T01:26:47.607Z,504.00
2022-12-31T01:27:17.687Z,506.00
2022-12-31T01:27:47.805Z,506.00
2022-12-31T01:28:17.769Z,503.00
2022-12-31T01:28:47.875Z,504.00
2022-12-31T01:29:17.941Z,510.00
2022-12-31T01:29:48.022Z,501.00
2022-12-31T01:30:18.104Z,505.00
2022-12-31T01:30:48.238Z,501.00
2022-12-31T01:31:18.220Z,502.00
2022-12-31T01:31:48.197Z,498.00
2022-12-31T01:32:18.306Z,503.00
2022-12-31T01:32:48.294Z,504.00
2022-12-31T01:33:18.429Z,505.00
2022-12-31T01:33:48.374Z,508.00
2022-12-31T01:34:18.458Z,509.00
2022-12-31T01:34:48.545Z,512.00
2022-12-31T01:35:18.621Z,513.00
2022-12-31T01:35:48.715Z,510.00
2022-12-31T01:36:23.567Z,516.00
2022-12-31T01:36:48.866Z,516.00
2022-12-31T01:37:18.955Z,512.00
2022-12-31T01:37:49.034Z,515.00
2022-12-31T01:38:19.115Z,515.00
2022-12-31T01:38:49.200Z,507.00
2022-12-31T01:39:19.287Z,504.00
2022-12-31T01:39:49.369Z,505.00
2022-12-31T01:40:19.457Z,509.00
2022-12-31T01:40:49.538Z,509.00
2022-12-31T01:41:19.624Z,507.00
2022-12-31T01:41:49.698Z,512.00
2022-12-31T01:42:19.787Z,503.00
2022-12-31T01:42:49.869Z,507.00
2022-12-31T01:43:19.958Z,509.00
2022-12-31T01:43:50.081Z,508.00
2022-12-31T01:44:20.133Z,516.00
2022-12-31T01:44:50.213Z,515.00
2022-12-31T01:45:20.309Z,507.00
2022-12-31T01:45:50.396Z,505.00
2022-12-31T01:46:20.504Z,512.00
2022-12-31T01:46:50.515Z,507.00
2022-12-31T01:47:20.548Z,506.00
2022-12-31T01:47:50.598Z,507.00
2022-12-31T01:48:20.626Z,510.00
2022-12-31T01:48:50.676Z,511.00
2022-12-31T01:49:20.711Z,510.00
2022-12-31T01:49:50.758Z,510.00
2022-12-31T01:50:20.786Z,511.00
2022-12-31T01:50:50.823Z,504.00
2022-12-31T01:51:20.869Z,504.00
2022-12-31T01:51:50.927Z,505.00
2022-12-31T01:52:20.942Z,510.00
2022-12-31T01:52:51.009Z,509.00
2022-12-31T01:53:21.055Z,512.00
2022-12-31T01:53:51.094Z,509.00
2022-12-31T01:54:21.204Z,510.00
2022-12-31T01:54:51.208Z,507.00
2022-12-31T01:55:21.263Z,507.00
2022-12-31T01:55:51.291Z,510.00
2022-12-31T01:56:21.339Z,510.00
2022-12-31T01:56:51.384Z,509.00
2022-12-31T01:57:21.464Z,511.00
2022-12-31T01:57:51.563Z,513.00
2022-12-31T01:58:21.647Z,513.00
2022-12-31T01:58:51.734Z,515.00
2022-12-31T01:59:21.831Z,513.00
2022-12-31T01:59:51.895Z,514.00
2022-12-31T02:00:21.991Z,512.00
2022-12-31T02:00:52.078Z,514.00
2022-12-31T02:01:22.284Z,511.00
2022-12-31T02:01:52.428Z,510.00
2022-12-31T02:02:22.505Z,508.00
2022-12-31T02:02:52.519Z,509.00
2022-12-31T02:03:22.410Z,504.00
2022-12-31T02:03:52.415Z,505.00
2022-12-31T02:04:22.484Z,507.00
2022-12-31T02:04:52.567Z,509.00
2022-12-31T02:05:22.653Z,508.00
2022-12-31T02:05:52.740Z,507.00
2022-12-31T02:06:22.826Z,506.00
2022-12-31T02:06:52.933Z,510.00
2022-12-31T02:07:23.019Z,510.00
2022-12-31T02:07:53.124Z,512.00
2022-12-31T02:08:23.199Z,516.00
2022-12-31T02:08:53.273Z,514.00
2022-12-31T02:09:23.358Z,499.00
2022-12-31T02:09:53.457Z,502.00
2022-12-31T02:10:23.541Z,501.00
2022-12-31T02:10:53.615Z,502.00
2022-12-31T02:11:23.712Z,500.00
2022-12-31T02:11:53.792Z,503.00
2022-12-31T02:12:23.883Z,502.00
2022-12-31T02:12:53.970Z,505.00
2022-12-31T02:13:24.057Z,505.00
2022-12-31T02:13:58.390Z,505.00
2022-12-31T02:14:24.164Z,505.00
2022-12-31T02:14:54.225Z,506.00
2022-12-31T02:15:24.328Z,505.00
2022-12-31T02:15:54.424Z,505.00
2022-12-31T02:16:24.614Z,504.00
2022-12-31T02:16:54.600Z,500.00
2022-12-31T02:17:24.684Z,499.00
2022-12-31T02:17:54.769Z,504.00
2022-12-31T02:18:24.852Z,500.00
2022-12-31T02:18:54.934Z,500.00
2022-12-31T02:19:25.023Z,500.00
2022-12-31T02:19:55.116Z,501.00
2022-12-31T02:20:25.188Z,504.00
2022-12-31T02:20:55.269Z,504.00
2022-12-31T02:21:25.285Z,503.00
2022-12-31T02:21:55.395Z,503.00
2022-12-31T02:22:25.490Z,505.00
2022-12-31T02:22:55.595Z,501.00
2022-12-31T02:23:25.679Z,507.00
2022-12-31T02:23:55.754Z,504.00
2022-12-31T02:24:25.857Z,503.00
2022-12-31T02:24:55.947Z,503.00
2022-12-31T02:25:26.016Z,505.00
2022-12-31T02:25:56.124Z,505.00
2022-12-31T02:26:26.179Z,505.00
2022-12-31T02:26:56.269Z,504.00
2022-12-31T02:27:26.361Z,504.00
2022-12-31T02:27:56.443Z,502.00
2022-12-31T02:28:26.510Z,502.00
2022-12-31T02:28:56.592Z,502.00
2022-12-31T02:29:26.702Z,502.00
2022-12-31T02:29:56.782Z,501.00
2022-12-31T02:30:26.848Z,502.00
2022-12-31T02:30:56.987Z,501.00
2022-12-31T02:31:27.066Z,509.00
2022-12-31T02:31:57.030Z,506.00
2022-12-31T02:32:27.111Z,510.00
2022-12-31T02:32:57.193Z,505.00
2022-12-31T02:33:27.276Z,513.00
2022-12-31T02:33:57.354Z,506.00
2022-12-31T02:34:27.454Z,507.00
2022-12-31T02:34:57.537Z,511.00
2022-12-31T02:35:27.614Z,509.00
2022-12-31T02:35:57.688Z,505.00
2022-12-31T02:36:27.770Z,507.00
2022-12-31T02:36:57.878Z,503.00
2022-12-31T02:37:27.932Z,507.00
2022-12-31T02:37:58.010Z,503.00
2022-12-31T02:38:28.095Z,500.00
2022-12-31T02:38:58.175Z,499.00
2022-12-31T02:39:28.272Z,497.00
2022-12-31T02:39:58.375Z,501.00
2022-12-31T02:40:28.446Z,498.00
2022-12-31T02:40:58.509Z,505.00
2022-12-31T02:41:28.599Z,503.00
2022-12-31T02:41:58.699Z,505.00
2022-12-31T02:42:28.784Z,503.00
2022-12-31T02:42:58.872Z,501.00
2022-12-31T02:43:28.939Z,489.00
2022-12-31T02:43:59.029Z,502.00
2022-12-31T02:44:29.141Z,501.00
2022-12-31T02:44:59.205Z,508.00
2022-12-31T02:45:29.263Z,505.00
2022-12-31T02:45:59.350Z,502.00
2022-12-31T02:46:29.442Z,504.00
2022-12-31T02:46:59.497Z,504.00
2022-12-31T02:47:29.530Z,498.00
2022-12-31T02:47:59.578Z,502.00
2022-12-31T02:48:29.606Z,504.00
2022-12-31T02:48:59.643Z,500.00
2022-12-31T02:49:29.688Z,501.00
2022-12-31T02:49:59.730Z,506.00
2022-12-31T02:50:29.747Z,506.00
2022-12-31T02:50:59.777Z,502.00
2022-12-31T02:51:29.801Z,501.00
2022-12-31T02:51:59.836Z,507.00
2022-12-31T02:52:29.895Z,507.00
2022-12-31T02:52:59.937Z,509.00
2022-12-31T02:53:29.954Z,508.00
2022-12-31T02:53:59.979Z,509.00
2022-12-31T02:54:30.011Z,513.00
2022-12-31T02:55:00.093Z,509.00
2022-12-31T02:55:30.133Z,511.00
2022-12-31T02:56:00.153Z,512.00
2022-12-31T02:56:30.183Z,510.00
2022-12-31T02:57:00.265Z,513.00
2022-12-31T02:57:30.341Z,515.00
2022-12-31T02:58:00.439Z,516.00
2022-12-31T02:58:30.515Z,517.00
2022-12-31T02:59:00.603Z,511.00
2022-12-31T02:59:30.682Z,512.00
2022-12-31T03:00:00.805Z,513.00
2022-12-31T03:00:30.912Z,513.00
2022-12-31T03:01:01.109Z,514.00
2022-12-31T03:01:31.066Z,513.00
2022-12-31T03:02:01.237Z,511.00
2022-12-31T03:02:31.228Z,511.00
2022-12-31T03:03:01.119Z,507.00
2022-12-31T03:03:31.220Z,510.00
2022-12-31T03:04:01.290Z,503.00
2022-12-31T03:04:31.377Z,510.00
2022-12-31T03:05:01.486Z,508.00
2022-12-31T03:05:31.547Z,511.00
2022-12-31T03:06:01.629Z,511.00
2022-12-31T03:06:31.717Z,510.00
2022-12-31T03:07:01.806Z,510.00
2022-12-31T03:07:31.924Z,509.00
2022-12-31T03:08:01.988Z,509.00
2022-12-31T03:08:32.080Z,503.00
2022-12-31T03:09:02.172Z,505.00
2022-12-31T03:09:32.252Z,501.00
2022-12-31T03:10:02.345Z,502.00
2022-12-31T03:10:32.430Z,507.00
2022-12-31T03:11:02.506Z,509.00
2022-12-31T03:11:32.583Z,508.00
2022-12-31T03:12:02.688Z,502.00
2022-12-31T03:12:32.772Z,503.00
2022-12-31T03:13:02.858Z,513.00
2022-12-31T03:13:32.953Z,514.00
2022-12-31T03:14:03.043Z,513.00
2022-12-31T03:14:33.130Z,511.00
2022-12-31T03:15:03.227Z,515.00
2022-12-31T03:15:33.339Z,511.00
2022-12-31T03:16:03.431Z,510.00
2022-12-31T03:16:33.426Z,506.00
2022-12-31T03:17:03.510Z,510.00
2022-12-31T03:17:33.590Z,511.00
2022-12-31T03:18:03.691Z,510.00
2022-12-31T03:18:33.754Z,510.00
2022-12-31T03:19:03.844Z,513.00
2022-12-31T03:19:33.922Z,514.00
2022-12-31T03:20:04.004Z,514.00
2022-12-31T03:20:34.099Z,514.00
2022-12-31T03:21:04.193Z,510.00
2022-12-31T03:21:34.260Z,512.00
2022-12-31T03:22:04.362Z,513.00
2022-12-31T03:22:34.442Z,514.00
2022-12-31T03:23:04.520Z,513.00
2022-12-31T03:23:34.632Z,516.00
2022-12-31T03:24:04.598Z,517.00
2022-12-31T03:24:34.676Z,513.00
2022-12-31T03:25:04.769Z,517.00
2022-12-31T03:25:34.770Z,516.00
2022-12-31T03:26:04.866Z,519.00
2022-12-31T03:26:34.936Z,516.00
2022-12-31T03:27:05.029Z,518.00
2022-12-31T03:27:35.102Z,519.00
2022-12-31T03:28:05.248Z,519.00
2022-12-31T03:28:35.210Z,521.00
2022-12-31T03:29:05.286Z,522.00
2022-12-31T03:29:35.365Z,520.00
2022-12-31T03:30:05.448Z,522.00
2022-12-31T03:30:35.538Z,518.00
2022-12-31T03:31:05.694Z,517.00
2022-12-31T03:31:35.726Z,522.00
2022-12-31T03:32:05.689Z,520.00
2022-12-31T03:32:35.773Z,514.00
2022-12-31T03:33:05.861Z,516.00
2022-12-31T03:33:35.951Z,515.00
2022-12-31T03:34:06.020Z,513.00
2022-12-31T03:34:36.106Z,511.00
2022-12-31T03:35:06.178Z,511.00
2022-12-31T03:35:36.279Z,513.00
2022-12-31T03:36:06.352Z,512.00
2022-12-31T03:36:36.427Z,509.00
2022-12-31T03:37:06.523Z,513.00
2022-12-31T03:37:36.582Z,511.00
2022-12-31T03:38:06.692Z,512.00
2022-12-31T03:38:36.767Z,515.00
2022-12-31T03:39:06.865Z,520.00
2022-12-31T03:39:36.933Z,519.00
2022-12-31T03:40:07.026Z,520.00
2022-12-31T03:40:37.111Z,516.00
2022-12-31T03:41:07.193Z,518.00
2022-12-31T03:41:37.292Z,518.00
2022-12-31T03:42:07.373Z,517.00
2022-12-31T03:42:37.467Z,517.00
2022-12-31T03:43:07.598Z,518.00
2022-12-31T03:43:37.558Z,518.00
2022-12-31T03:44:07.634Z,516.00
2022-12-31T03:44:37.725Z,510.00
2022-12-31T03:45:07.824Z,512.00
2022-12-31T03:45:37.997Z,511.00
2022-12-31T03:46:08.067Z,511.00
2022-12-31T03:46:38.007Z,511.00
2022-12-31T03:47:08.051Z,508.00
2022-12-31T03:47:38.087Z,508.00
2022-12-31T03:48:08.143Z,513.00
2022-12-31T03:48:38.206Z,514.00
2022-12-31T03:49:08.239Z,510.00
2022-12-31T03:49:38.278Z,506.00
2022-12-31T03:50:08.306Z,520.00
2022-12-31T03:50:38.349Z,518.00
2022-12-31T03:51:08.392Z,518.00
2022-12-31T03:51:38.426Z,518.00
2022-12-31T03:52:08.467Z,517.00
2022-12-31T03:52:38.519Z,512.00
2022-12-31T03:53:08.569Z,516.00
2022-12-31T03:53:38.630Z,510.00
2022-12-31T03:54:08.673Z,505.00
2022-12-31T03:54:38.711Z,511.00
2022-12-31T03:55:08.746Z,509.00
2022-12-31T03:55:38.770Z,509.00
2022-12-31T03:56:08.811Z,511.00
2022-12-31T03:56:38.856Z,509.00
2022-12-31T03:57:08.938Z,514.00
2022-12-31T03:57:39.035Z,513.00
2022-12-31T03:58:09.155Z,514.00
2022-12-31T03:58:39.108Z,512.00
2022-12-31T03:59:09.180Z,510.00
2022-12-31T03:59:39.279Z,507.00
2022-12-31T04:00:09.355Z,506.00
2022-12-31T04:00:39.559Z,504.00
2022-12-31T04:01:09.662Z,502.00
2022-12-31T04:01:39.692Z,508.00
2022-12-31T04:02:09.722Z,510.00
2022-12-31T04:02:39.700Z,512.00
2022-12-31T04:03:09.728Z,502.00
2022-12-31T04:03:39.687Z,501.00
2022-12-31T04:04:09.755Z,514.00
2022-12-31T04:04:39.851Z,501.00
2022-12-31T04:05:09.947Z,509.00
2022-12-31T04:05:40.018Z,509.00
2022-12-31T04:06:10.106Z,511.00
2022-12-31T04:06:40.181Z,510.00
2022-12-31T04:07:10.280Z,518.00
2022-12-31T04:07:40.354Z,500.00
2022-12-31T04:08:10.457Z,505.00
2022-12-31T04:08:40.540Z,509.00
2022-12-31T04:09:10.645Z,506.00
2022-12-31T04:09:40.716Z,510.00
2022-12-31T04:10:10.796Z,513.00
2022-12-31T04:10:40.894Z,516.00
2022-12-31T04:11:13.657Z,511.00
2022-12-31T04:11:41.042Z,511.00
2022-12-31T04:12:11.112Z,514.00
2022-12-31T04:12:41.210Z,510.00
2022-12-31T04:13:11.312Z,510.00
2022-12-31T04:13:41.382Z,511.00
2022-12-31T04:14:11.478Z,515.00
2022-12-31T04:14:41.539Z,512.00
2022-12-31T04:15:11.638Z,511.00
2022-12-31T04:15:41.708Z,512.00
2022-12-31T04:16:11.886Z,512.00
2022-12-31T04:16:41.918Z,519.00
2022-12-31T04:17:11.870Z,516.00
2022-12-31T04:17:41.966Z,511.00
2022-12-31T04:18:12.059Z,512.00
2022-12-31T04:18:42.152Z,519.00
2022-12-31T04:19:12.229Z,518.00
2022-12-31T04:19:42.317Z,520.00
2022-12-31T04:20:12.390Z,519.00
2022-12-31T04:20:42.485Z,521.00
2022-12-31T04:21:12.560Z,522.00
2022-12-31T04:21:42.644Z,519.00
2022-12-31T04:22:12.729Z,518.00
2022-12-31T04:22:42.808Z,517.00
2022-12-31T04:23:12.905Z,515.00
2022-12-31T04:23:42.988Z,513.00
2022-12-31T04:24:13.071Z,513.00
2022-12-31T04:24:43.144Z,515.00
2022-12-31T04:25:13.238Z,515.00
2022-12-31T04:25:43.327Z,519.00
2022-12-31T04:26:13.434Z,496.00
2022-12-31T04:26:43.488Z,511.00
2022-12-31T04:27:13.587Z,512.00
2022-12-31T04:27:43.939Z,515.00
2022-12-31T04:28:13.862Z,508.00
2022-12-31T04:28:43.813Z,513.00
2022-12-31T04:29:13.892Z,515.00
2022-12-31T04:29:43.954Z,518.00
2022-12-31T04:30:14.147Z,512.00
2022-12-31T04:30:44.142Z,514.00
2022-12-31T04:31:14.254Z,515.00
2022-12-31T04:31:44.356Z,516.00
2022-12-31T04:32:14.331Z,516.00
2022-12-31T04:32:44.411Z,513.00
2022-12-31T04:33:14.497Z,512.00
2022-12-31T04:33:44.574Z,514.00
2022-12-31T04:34:14.648Z,515.00
2022-12-31T04:34:44.742Z,516.00
2022-12-31T04:35:14.826Z,515.00
2022-12-31T04:35:44.898Z,514.00
2022-12-31T04:36:14.977Z,513.00
2022-12-31T04:36:45.055Z,513.00
2022-12-31T04:37:15.138Z,514.00
2022-12-31T04:37:45.205Z,509.00
2022-12-31T04:38:15.309Z,511.00
2022-12-31T04:38:45.380Z,515.00
2022-12-31T04:39:15.468Z,507.00
2022-12-31T04:39:45.540Z,511.00
2022-12-31T04:40:15.621Z,511.00
2022-12-31T04:40:45.707Z,512.00
2022-12-31T04:41:15.705Z,512.00
2022-12-31T04:41:45.795Z,510.00
2022-12-31T04:42:15.915Z,507.00
2022-12-31T04:42:45.877Z,510.00
2022-12-31T04:43:15.954Z,512.00
2022-12-31T04:43:46.049Z,514.00
2022-12-31T04:44:16.129Z,514.00
2022-12-31T04:44:46.216Z,511.00
2022-12-31T04:45:16.316Z,506.00
2022-12-31T04:45:46.425Z,511.00
2022-12-31T04:46:16.519Z,511.00
2022-12-31T04:46:46.618Z,512.00
2022-12-31T04:47:21.823Z,513.00
2022-12-31T04:47:46.684Z,514.00
2022-12-31T04:48:16.757Z,512.00
2022-12-31T04:48:46.787Z,514.00
2022-12-31T04:49:16.832Z,515.00
2022-12-31T04:49:46.917Z,513.00
2022-12-31T04:50:16.959Z,514.00
2022-12-31T04:50:46.995Z,515.00
2022-12-31T04:51:17.036Z,514.00
2022-12-31T04:51:47.066Z,510.00
2022-12-31T04:52:17.139Z,504.00
2022-12-31T04:52:47.190Z,509.00
2022-12-31T04:53:17.221Z,511.00
2022-12-31T04:53:47.281Z,513.00
2022-12-31T04:54:17.308Z,514.00
2022-12-31T04:54:47.347Z,518.00
2022-12-31T04:55:17.394Z,514.00
2022-12-31T04:55:47.434Z,516.00
2022-12-31T04:56:17.465Z,514.00
2022-12-31T04:56:47.532Z,513.00
2022-12-31T04:57:17.616Z,514.00
2022-12-31T04:57:47.703Z,514.00
2022-12-31T04:58:17.780Z,507.00
2022-12-31T04:58:47.864Z,506.00
2022-12-31T04:59:17.960Z,512.00
2022-12-31T04:59:48.054Z,515.00
2022-12-31T05:00:18.138Z,518.00
2022-12-31T05:00:48.258Z,520.00
2022-12-31T05:01:18.339Z,521.00
2022-12-31T05:01:48.430Z,520.00
2022-12-31T05:02:18.687Z,526.00
2022-12-31T05:02:48.795Z,523.00
2022-12-31T05:03:18.686Z,517.00
2022-12-31T05:03:48.673Z,523.00
2022-12-31T05:04:18.760Z,521.00
2022-12-31T05:04:48.836Z,514.00
2022-12-31T05:05:18.930Z,518.00
2022-12-31T05:05:49.023Z,521.00
2022-12-31T05:06:19.100Z,525.00
2022-12-31T05:06:49.184Z,516.00
2022-12-31T05:07:19.279Z,513.00
2022-12-31T05:07:49.353Z,518.00
2022-12-31T05:08:19.432Z,516.00
2022-12-31T05:08:49.516Z,518.00
2022-12-31T05:09:19.595Z,517.00
2022-12-31T05:09:49.686Z,516.00
2022-12-31T05:10:19.781Z,510.00
2022-12-31T05:10:49.847Z,519.00
2022-12-31T05:11:19.937Z,510.00
2022-12-31T05:11:50.032Z,510.00
2022-12-31T05:12:20.118Z,520.00
2022-12-31T05:12:50.199Z,519.00
2022-12-31T05:13:20.284Z,515.00
2022-12-31T05:13:50.395Z,508.00
2022-12-31T05:14:20.450Z,520.00
2022-12-31T05:14:50.538Z,510.00
2022-12-31T05:15:20.628Z,517.00
2022-12-31T05:15:50.715Z,513.00
2022-12-31T05:16:20.839Z,520.00
2022-12-31T05:16:50.880Z,521.00
2022-12-31T05:17:20.950Z,519.00
2022-12-31T05:17:50.894Z,521.00
2022-12-31T05:18:20.994Z,512.00
2022-12-31T05:18:51.079Z,517.00
2022-12-31T05:19:21.161Z,515.00
2022-12-31T05:19:51.243Z,515.00
2022-12-31T05:20:21.318Z,512.00
2022-12-31T05:20:51.401Z,514.00
2022-12-31T05:21:21.504Z,510.00
2022-12-31T05:21:51.565Z,511.00
2022-12-31T05:22:21.649Z,512.00
2022-12-31T05:22:51.740Z,511.00
2022-12-31T05:23:21.826Z,511.00
2022-12-31T05:23:51.898Z,508.00
2022-12-31T05:24:21.991Z,509.00
2022-12-31T05:24:52.084Z,510.00
2022-12-31T05:25:22.163Z,511.00
2022-12-31T05:25:52.243Z,515.00
2022-12-31T05:26:22.337Z,514.00
2022-12-31T05:26:52.425Z,513.00
2022-12-31T05:27:22.503Z,514.00
2022-12-31T05:27:52.588Z,515.00
2022-12-31T05:28:22.684Z,516.00
2022-12-31T05:28:52.764Z,517.00
2022-12-31T05:29:22.860Z,518.00
2022-12-31T05:29:52.947Z,521.00
2022-12-31T05:30:23.012Z,513.00
2022-12-31T05:30:53.265Z,524.00
2022-12-31T05:31:23.178Z,523.00
2022-12-31T05:31:53.231Z,519.00
2022-12-31T05:32:23.355Z,521.00
2022-12-31T05:32:53.407Z,513.00
2022-12-31T05:33:23.519Z,516.00
2022-12-31T05:33:53.574Z,517.00
2022-12-31T05:34:23.674Z,513.00
2022-12-31T05:34:53.757Z,510.00
2022-12-31T05:35:23.738Z,518.00
2022-12-31T05:35:53.806Z,516.00
2022-12-31T05:36:23.907Z,511.00
2022-12-31T05:36:53.995Z,522.00
2022-12-31T05:37:24.066Z,513.00
2022-12-31T05:37:54.166Z,513.00
2022-12-31T05:38:24.236Z,516.00
2022-12-31T05:38:54.305Z,514.00
2022-12-31T05:39:24.377Z,514.00
2022-12-31T05:39:54.466Z,516.00
2022-12-31T05:40:24.547Z,514.00
2022-12-31T05:40:54.620Z,506.00
2022-12-31T05:41:24.705Z,509.00
2022-12-31T05:41:54.795Z,510.00
2022-12-31T05:42:24.867Z,508.00
2022-12-31T05:42:54.871Z,511.00
2022-12-31T05:43:24.949Z,510.00
2022-12-31T05:43:55.029Z,508.00
2022-12-31T05:44:25.097Z,510.00
2022-12-31T05:44:55.159Z,508.00
2022-12-31T05:45:30.331Z,509.00
2022-12-31T05:45:55.355Z,510.00
2022-12-31T05:46:25.335Z,509.00
2022-12-31T05:46:55.415Z,505.00
2022-12-31T05:47:25.474Z,506.00
2022-12-31T05:47:55.479Z,507.00
2022-12-31T05:48:25.514Z,509.00
2022-12-31T05:48:55.546Z,512.00
2022-12-31T05:49:25.575Z,516.00
2022-12-31T05:49:55.627Z,515.00
2022-12-31T05:50:25.632Z,514.00
2022-12-31T05:50:55.658Z,516.00
2022-12-31T05:51:25.688Z,512.00
2022-12-31T05:51:55.739Z,509.00
2022-12-31T05:52:25.771Z,512.00
2022-12-31T05:52:55.830Z,508.00
2022-12-31T05:53:25.867Z,510.00
2022-12-31T05:53:55.895Z,511.00
2022-12-31T05:54:25.933Z,509.00
2022-12-31T05:54:55.992Z,508.00
2022-12-31T05:55:26.024Z,513.00
2022-12-31T05:55:56.049Z,510.00
2022-12-31T05:56:26.097Z,515.00
2022-12-31T05:56:56.154Z,513.00
2022-12-31T05:57:26.258Z,509.00
2022-12-31T05:57:56.292Z,510.00
2022-12-31T05:58:26.260Z,510.00
2022-12-31T05:58:56.299Z,510.00
2022-12-31T05:59:26.282Z,509.00
2022-12-31T05:59:56.345Z,514.00
2022-12-31T06:00:26.434Z,515.00
2022-12-31T06:00:56.658Z,514.00
2022-12-31T06:01:26.669Z,515.00
2022-12-31T06:01:56.573Z,515.00
2022-12-31T06:02:26.742Z,514.00
2022-12-31T06:02:56.869Z,510.00
2022-12-31T06:03:26.831Z,510.00
2022-12-31T06:03:56.873Z,512.00
2022-12-31T06:04:26.827Z,511.00
2022-12-31T06:04:56.902Z,516.00
2022-12-31T06:05:26.976Z,514.00
2022-12-31T06:05:57.066Z,511.00
2022-12-31T06:06:27.143Z,512.00
2022-12-31T06:06:57.215Z,511.00
2022-12-31T06:07:27.297Z,509.00
2022-12-31T06:07:57.386Z,505.00
2022-12-31T06:08:27.462Z,513.00
2022-12-31T06:08:57.545Z,511.00
2022-12-31T06:09:27.624Z,516.00
2022-12-31T06:09:57.707Z,516.00
2022-12-31T06:10:27.779Z,527.00
2022-12-31T06:10:57.869Z,514.00
2022-12-31T06:11:27.944Z,513.00
2022-12-31T06:11:58.062Z,511.00
2022-12-31T06:12:28.114Z,512.00
2022-12-31T06:12:58.210Z,512.00
2022-12-31T06:13:28.288Z,506.00
2022-12-31T06:13:58.392Z,508.00
2022-12-31T06:14:28.465Z,511.00
2022-12-31T06:14:58.533Z,508.00
2022-12-31T06:15:28.616Z,508.00
2022-12-31T06:15:58.794Z,512.00